createdAt,value
2019-03-20T00:01:43.379Z,10.53
2019-03-20T00:04:04.424Z,10.57
2019-03-20T00:06:32.331Z,7.70
2019-03-20T00:09:00.733Z,6.97
2019-03-20T00:11:28.950Z,7.15
2019-03-20T00:13:56.880Z,10.60
2019-03-20T00:16:25.238Z,8.60
2019-03-20T00:18:53.196Z,13.37
2019-03-20T00:21:21.185Z,9.48
2019-03-20T00:23:49.166Z,8.90
2019-03-20T00:26:17.394Z,8.03
2019-03-20T00:28:45.667Z,10.85
2019-03-20T00:31:13.946Z,13.70
2019-03-20T00:33:41.873Z,8.70
2019-03-20T00:36:10.266Z,7.75
2019-03-20T00:38:38.212Z,8.45
2019-03-20T00:41:06.294Z,11.05
2019-03-20T00:43:34.593Z,9.13
2019-03-20T00:46:02.889Z,8.25
2019-03-20T00:48:31.578Z,16.00
2019-03-20T00:50:59.533Z,11.03
2019-03-20T00:53:27.816Z,8.58
2019-03-20T00:55:55.822Z,11.17
2019-03-20T00:58:23.797Z,10.67
2019-03-20T01:00:51.733Z,11.48
2019-03-20T01:03:20.602Z,13.90
2019-03-20T01:05:48.891Z,13.13
2019-03-20T01:08:17.179Z,14.75
2019-03-20T01:10:45.456Z,9.55
2019-03-20T01:13:13.428Z,13.37
2019-03-20T01:15:42.007Z,14.10
2019-03-20T01:18:10.280Z,12.95
2019-03-20T01:20:38.562Z,12.97
2019-03-20T01:23:06.954Z,10.45
2019-03-20T01:25:35.525Z,11.83
2019-03-20T01:28:04.111Z,8.33
2019-03-20T01:30:36.331Z,8.00
2019-03-20T01:33:05.389Z,7.90
2019-03-20T01:35:33.342Z,7.05
2019-03-20T01:38:01.310Z,10.35
2019-03-20T01:40:29.584Z,11.45
2019-03-20T01:42:58.170Z,12.18
2019-03-20T01:45:26.121Z,11.48
2019-03-20T01:47:54.080Z,12.80
2019-03-20T01:50:22.036Z,12.20
2019-03-20T01:52:50.343Z,10.88
2019-03-20T01:55:18.528Z,11.10
2019-03-20T01:57:46.814Z,12.27
2019-03-20T02:00:15.288Z,9.43
2019-03-20T02:02:43.516Z,9.45
2019-03-20T02:05:11.652Z,10.15
2019-03-20T02:07:39.617Z,11.80
2019-03-20T02:10:08.814Z,14.07
2019-03-20T02:12:37.402Z,13.22
2019-03-20T02:15:06.509Z,12.98
2019-03-20T02:17:34.758Z,13.30
2019-03-20T02:20:02.750Z,13.85
2019-03-20T02:22:31.008Z,14.40
2019-03-20T02:24:58.959Z,10.53
2019-03-20T02:27:27.504Z,11.50
2019-03-20T02:29:55.494Z,11.68
2019-03-20T02:32:23.872Z,12.63
2019-03-20T02:34:51.889Z,12.90
2019-03-20T02:37:20.165Z,10.60
2019-03-20T02:39:48.708Z,10.85
2019-03-20T02:42:17.325Z,7.37
2019-03-20T02:44:45.609Z,13.13
2019-03-20T02:47:13.880Z,9.88
2019-03-20T02:49:43.002Z,12.45
2019-03-20T02:52:10.926Z,12.68
2019-03-20T02:54:38.887Z,9.43
2019-03-20T02:57:06.829Z,16.12
2019-03-20T02:59:35.363Z,11.35
2019-03-20T03:02:03.369Z,16.62
2019-03-20T03:04:31.320Z,10.28
2019-03-20T03:06:59.301Z,14.75
2019-03-20T03:09:27.247Z,8.83
2019-03-20T03:11:55.612Z,9.03
2019-03-20T03:14:23.591Z,12.50
2019-03-20T03:16:51.850Z,8.38
2019-03-20T03:19:19.785Z,8.85
2019-03-20T03:21:48.425Z,8.80
2019-03-20T03:24:16.693Z,15.28
2019-03-20T03:26:44.628Z,9.70
2019-03-20T03:29:12.869Z,10.75
2019-03-20T03:31:41.131Z,13.28
2019-03-20T03:34:09.303Z,11.93
2019-03-20T03:36:37.555Z,10.50
2019-03-20T03:39:06.893Z,11.70
2019-03-20T03:41:34.937Z,9.88
2019-03-20T03:44:02.878Z,11.40
2019-03-20T03:46:31.189Z,9.37
2019-03-20T03:48:59.387Z,9.50
2019-03-20T03:51:27.320Z,11.28
2019-03-20T03:53:55.830Z,17.77
2019-03-20T03:56:24.421Z,10.90
2019-03-20T03:58:52.343Z,10.40
2019-03-20T04:01:20.958Z,8.25
2019-03-20T04:03:49.197Z,9.28
2019-03-20T04:06:17.134Z,10.32
2019-03-20T04:08:45.498Z,9.95
2019-03-20T04:11:13.962Z,9.53
2019-03-20T04:13:42.258Z,10.25
2019-03-20T04:16:10.798Z,11.70
2019-03-20T04:18:39.009Z,12.00
2019-03-20T04:21:07.237Z,9.80
2019-03-20T04:23:35.536Z,8.33
2019-03-20T04:26:03.489Z,10.40
2019-03-20T04:28:31.791Z,8.07
2019-03-20T04:31:00.384Z,8.28
2019-03-20T04:33:28.734Z,11.23
2019-03-20T04:35:56.653Z,6.80
2019-03-20T04:38:24.892Z,16.12
2019-03-20T04:40:53.286Z,15.83
2019-03-20T04:43:22.091Z,12.30
2019-03-20T04:45:50.093Z,12.33
2019-03-20T04:48:18.677Z,11.68
2019-03-20T04:50:46.954Z,9.18
2019-03-20T04:53:15.193Z,7.90
2019-03-20T04:55:43.463Z,9.83
2019-03-20T04:58:11.734Z,10.23
2019-03-20T05:00:39.714Z,11.10
2019-03-20T05:03:07.687Z,10.13
2019-03-20T05:05:36.237Z,9.10
2019-03-20T05:08:04.478Z,11.48
2019-03-20T05:10:33.131Z,8.90
2019-03-20T05:13:01.052Z,7.92
2019-03-20T05:15:28.996Z,7.90
2019-03-20T05:17:57.225Z,8.85
2019-03-20T05:20:25.522Z,10.45
2019-03-20T05:22:53.518Z,7.22
2019-03-20T05:25:22.176Z,7.85
2019-03-20T05:27:50.392Z,7.55
2019-03-20T05:30:18.753Z,8.70
2019-03-20T05:32:47.311Z,13.47
2019-03-20T05:35:15.592Z,12.05
2019-03-20T05:37:43.573Z,9.80
2019-03-20T05:40:12.086Z,11.30
2019-03-20T05:42:40.068Z,10.15
2019-03-20T05:45:08.535Z,8.43
2019-03-20T05:47:36.544Z,8.98
2019-03-20T05:50:04.934Z,11.63
2019-03-20T05:52:33.160Z,8.93
2019-03-20T05:55:01.169Z,11.45
2019-03-20T05:57:29.416Z,8.00
2019-03-20T05:59:57.729Z,8.95
2019-03-20T06:02:25.848Z,10.45
2019-03-20T06:04:54.151Z,8.50
2019-03-20T06:07:22.895Z,7.87
2019-03-20T06:09:51.159Z,9.38
2019-03-20T06:12:19.169Z,11.55
2019-03-20T06:14:47.485Z,7.50
2019-03-20T06:17:15.465Z,12.70
2019-03-20T06:19:43.429Z,8.95
2019-03-20T06:22:11.349Z,9.23
2019-03-20T06:24:39.288Z,13.00
2019-03-20T06:27:07.653Z,8.40
2019-03-20T06:29:35.589Z,8.03
2019-03-20T06:32:03.530Z,9.00
2019-03-20T06:34:31.781Z,12.05
2019-03-20T06:37:00.101Z,13.53
2019-03-20T06:39:28.406Z,11.83
2019-03-20T06:41:56.672Z,11.80
2019-03-20T06:44:25.041Z,9.73
2019-03-20T06:46:53.247Z,13.22
2019-03-20T06:49:21.213Z,11.12
2019-03-20T06:51:49.177Z,13.15
2019-03-20T06:54:17.116Z,12.60
2019-03-20T06:56:45.075Z,14.05
2019-03-20T06:59:50.685Z,16.12
2019-03-20T07:02:20.826Z,12.68
2019-03-20T07:05:07.706Z,9.33
2019-03-20T07:07:43.989Z,14.63
2019-03-20T07:10:08.985Z,13.22
2019-03-20T07:12:36.938Z,13.98
2019-03-20T07:15:05.245Z,10.08
2019-03-20T07:17:33.518Z,13.22
2019-03-20T07:20:01.493Z,11.60
2019-03-20T07:22:29.893Z,12.05
2019-03-20T07:24:57.845Z,14.20
2019-03-20T07:27:26.421Z,15.40
2019-03-20T07:29:55.007Z,13.05
2019-03-20T07:32:23.569Z,16.20
2019-03-20T07:34:51.860Z,16.73
2019-03-20T07:37:20.338Z,16.35
2019-03-20T07:39:48.935Z,14.00
2019-03-20T07:42:16.928Z,15.13
2019-03-20T07:44:45.158Z,15.38
2019-03-20T07:47:13.092Z,17.98
2019-03-20T07:49:41.739Z,20.72
2019-03-20T07:52:10.083Z,18.87
2019-03-20T07:54:38.678Z,18.67
2019-03-20T07:57:06.987Z,17.27
2019-03-20T07:59:35.282Z,21.57
2019-03-20T08:02:03.237Z,19.70
2019-03-20T08:04:31.222Z,21.95
2019-03-20T08:06:59.772Z,19.12
2019-03-20T08:09:27.800Z,22.30
2019-03-20T08:11:56.016Z,20.20
2019-03-20T08:14:24.387Z,18.00
2019-03-20T08:16:52.673Z,19.75
2019-03-20T08:19:20.599Z,20.10
2019-03-20T08:21:48.565Z,19.27
2019-03-20T08:24:16.975Z,20.57
2019-03-20T08:26:45.235Z,18.17
2019-03-20T08:29:13.654Z,20.32
2019-03-20T08:31:41.649Z,23.52
2019-03-20T08:34:09.623Z,21.80
2019-03-20T08:36:37.968Z,23.73
2019-03-20T08:39:07.064Z,21.05
2019-03-20T08:41:35.289Z,24.30
2019-03-20T08:44:03.581Z,23.37
2019-03-20T08:46:31.565Z,21.50
2019-03-20T08:48:59.550Z,26.55
2019-03-20T08:51:27.535Z,23.90
2019-03-20T08:53:56.381Z,26.30
2019-03-20T08:56:24.758Z,25.80
2019-03-20T08:58:53.213Z,23.20
2019-03-20T09:01:28.466Z,23.92
2019-03-20T09:03:51.845Z,22.73
2019-03-20T09:06:20.158Z,23.60
2019-03-20T09:08:48.741Z,23.95
2019-03-20T09:11:17.022Z,25.25
2019-03-20T09:13:45.047Z,20.47
2019-03-20T09:16:13.367Z,25.88
2019-03-20T09:18:41.713Z,24.72
2019-03-20T09:21:10.227Z,26.37
2019-03-20T09:23:40.745Z,24.55
2019-03-20T09:26:08.242Z,26.37
2019-03-20T09:28:36.748Z,25.77
2019-03-20T09:31:05.286Z,31.12
2019-03-20T09:33:33.512Z,26.97
2019-03-20T09:36:01.480Z,28.47
2019-03-20T09:38:29.747Z,27.05
2019-03-20T09:40:58.031Z,27.13
2019-03-20T09:43:26.588Z,26.65
2019-03-20T09:45:56.876Z,27.93
2019-03-20T09:48:24.402Z,27.98
2019-03-20T09:50:52.651Z,29.55
2019-03-20T09:53:20.617Z,29.15
2019-03-20T09:55:48.874Z,27.62
2019-03-20T09:58:17.178Z,27.27
2019-03-20T10:00:45.425Z,28.30
2019-03-20T10:03:13.767Z,27.65
2019-03-20T10:05:41.734Z,27.33
2019-03-20T10:08:10.001Z,29.93
2019-03-20T10:10:38.330Z,26.97
2019-03-20T10:13:06.853Z,29.90
2019-03-20T10:15:35.115Z,26.23
2019-03-20T10:18:03.466Z,27.83
2019-03-20T10:20:31.741Z,28.87
2019-03-20T10:23:00.006Z,24.87
2019-03-20T10:25:28.305Z,22.80
2019-03-20T10:27:56.981Z,23.40
2019-03-20T10:30:25.265Z,27.93
2019-03-20T10:32:53.268Z,27.58
2019-03-20T10:35:21.595Z,24.92
2019-03-20T10:37:49.573Z,29.23
2019-03-20T10:40:18.373Z,25.65
2019-03-20T10:42:46.317Z,21.85
2019-03-20T10:45:14.733Z,26.62
2019-03-20T10:47:42.771Z,24.87
2019-03-20T10:50:12.768Z,22.58
2019-03-20T10:52:40.697Z,22.65
2019-03-20T10:55:08.670Z,26.05
2019-03-20T10:57:37.541Z,24.15
2019-03-20T11:00:06.556Z,25.65
2019-03-20T11:02:34.800Z,22.43
2019-03-20T11:05:03.091Z,23.05
2019-03-20T11:07:31.280Z,23.00
2019-03-20T11:09:59.219Z,25.10
2019-03-20T11:12:27.192Z,27.35
2019-03-20T11:14:55.154Z,26.37
2019-03-20T11:17:23.126Z,23.10
2019-03-20T11:19:51.098Z,23.67
2019-03-20T11:22:19.352Z,24.30
2019-03-20T11:24:47.361Z,22.80
2019-03-20T11:27:16.038Z,24.50
2019-03-20T11:29:44.022Z,19.82
2019-03-20T11:32:14.350Z,21.07
2019-03-20T11:34:42.191Z,23.10
2019-03-20T11:37:10.890Z,23.60
2019-03-20T11:39:39.165Z,22.85
2019-03-20T11:42:07.123Z,21.05
2019-03-20T11:44:35.714Z,21.57
2019-03-20T11:47:03.998Z,23.30
2019-03-20T11:49:32.277Z,22.60
2019-03-20T11:52:00.244Z,22.67
2019-03-20T11:54:28.194Z,22.20
2019-03-20T11:56:56.490Z,23.47
2019-03-20T11:59:24.478Z,20.77
2019-03-20T12:01:52.482Z,20.03
2019-03-20T12:04:20.804Z,19.52
2019-03-20T12:06:48.783Z,24.05
2019-03-20T12:09:17.048Z,21.50
2019-03-20T12:11:46.265Z,19.75
2019-03-20T12:14:14.271Z,22.07
2019-03-20T12:16:42.213Z,23.90
2019-03-20T12:19:10.279Z,18.27
2019-03-20T12:21:38.645Z,20.20
2019-03-20T12:24:06.931Z,20.77
2019-03-20T12:26:35.186Z,20.32
2019-03-20T12:29:03.472Z,19.55
2019-03-20T12:31:32.060Z,17.85
2019-03-20T12:34:02.174Z,18.82
2019-03-20T12:36:29.696Z,16.40
2019-03-20T12:38:58.322Z,16.95
2019-03-20T12:41:27.641Z,17.55
2019-03-20T12:43:55.630Z,19.05
2019-03-20T12:46:23.980Z,15.78
2019-03-20T12:48:52.204Z,15.53
2019-03-20T12:51:20.717Z,13.50
2019-03-20T12:53:48.683Z,16.97
2019-03-20T12:56:18.305Z,17.40
2019-03-20T12:58:46.586Z,17.10
2019-03-20T13:01:14.596Z,16.67
2019-03-20T13:03:42.598Z,18.05
2019-03-20T13:06:11.208Z,16.40
2019-03-20T13:08:39.226Z,15.32
2019-03-20T13:11:07.231Z,19.00
2019-03-20T13:13:35.216Z,17.42
2019-03-20T13:16:03.453Z,19.00
2019-03-20T13:18:31.520Z,19.23
2019-03-20T13:21:00.152Z,18.07
2019-03-20T13:23:29.563Z,17.20
2019-03-20T13:25:57.518Z,16.47
2019-03-20T13:28:25.785Z,19.00
2019-03-20T13:30:55.274Z,19.07
2019-03-20T13:33:26.023Z,15.78
2019-03-20T13:35:53.194Z,19.80
2019-03-20T13:38:21.200Z,22.70
2019-03-20T13:40:49.709Z,19.85
2019-03-20T13:43:17.676Z,20.57
2019-03-20T13:45:45.996Z,22.45
2019-03-20T13:48:13.945Z,22.02
2019-03-20T13:50:41.915Z,23.18
2019-03-20T13:53:10.229Z,23.27
2019-03-20T13:55:39.120Z,23.92
2019-03-20T13:58:07.112Z,21.23
2019-03-20T14:00:35.089Z,24.55
2019-03-20T14:03:05.312Z,23.85
2019-03-20T14:05:37.154Z,22.37
2019-03-20T14:08:07.006Z,24.30
2019-03-20T14:10:49.467Z,25.57
2019-03-20T14:13:12.477Z,24.25
2019-03-20T14:15:43.264Z,23.57
2019-03-20T14:18:18.553Z,22.93
2019-03-20T14:20:48.836Z,25.50
2019-03-20T14:23:24.234Z,29.15
2019-03-20T14:26:03.306Z,25.95
2019-03-20T14:28:34.576Z,29.02
2019-03-20T14:31:03.648Z,28.87
2019-03-20T14:33:32.802Z,29.33
2019-03-20T14:36:02.025Z,32.80
2019-03-20T14:38:29.980Z,29.15
2019-03-20T14:40:58.004Z,32.38
2019-03-20T14:43:25.940Z,32.80
2019-03-20T14:45:54.194Z,32.17
2019-03-20T14:48:23.302Z,32.00
2019-03-20T14:50:51.886Z,34.83
2019-03-20T14:53:19.849Z,31.75
2019-03-20T14:55:48.128Z,34.27
2019-03-20T14:58:16.412Z,32.98
2019-03-20T15:00:44.380Z,29.80
2019-03-20T15:03:12.348Z,32.98
2019-03-20T15:05:40.934Z,31.97
2019-03-20T15:08:08.897Z,29.70
2019-03-20T15:10:45.623Z,28.33
2019-03-20T15:13:06.591Z,31.87
2019-03-20T15:15:35.896Z,31.93
2019-03-20T15:18:04.364Z,33.23
2019-03-20T15:20:32.608Z,30.60
2019-03-20T15:23:00.610Z,31.75
2019-03-20T15:25:28.585Z,35.23
2019-03-20T15:27:56.589Z,32.98
2019-03-20T15:30:25.113Z,31.45
2019-03-20T15:32:53.090Z,32.75
2019-03-20T15:35:21.278Z,32.70
2019-03-20T15:37:49.537Z,33.78
2019-03-20T15:40:17.513Z,34.55
2019-03-20T15:42:45.483Z,31.93
2019-03-20T15:45:14.335Z,40.63
2019-03-20T15:47:42.978Z,34.30
2019-03-20T15:50:12.421Z,33.75
2019-03-20T15:52:40.416Z,34.08
2019-03-20T15:55:10.058Z,30.20
2019-03-20T15:57:38.025Z,30.68
2019-03-20T16:00:06.501Z,34.20
2019-03-20T16:02:34.494Z,32.17
2019-03-20T16:05:02.750Z,33.55
2019-03-20T16:07:31.114Z,32.30
2019-03-20T16:09:59.052Z,32.17
2019-03-20T16:12:27.278Z,31.97
2019-03-20T16:14:55.617Z,34.45
2019-03-20T16:17:23.582Z,31.90
2019-03-20T16:19:51.797Z,35.95
2019-03-20T16:22:22.026Z,35.92
2019-03-20T16:24:49.973Z,35.55
2019-03-20T16:27:18.404Z,34.65
2019-03-20T16:29:46.600Z,36.77
2019-03-20T16:32:14.933Z,35.08
2019-03-20T16:34:42.965Z,35.98
2019-03-20T16:37:11.282Z,39.85
2019-03-20T16:39:40.456Z,37.55
2019-03-20T16:42:08.849Z,38.28
2019-03-20T16:44:37.121Z,39.70
2019-03-20T16:47:05.402Z,39.38
2019-03-20T16:49:33.647Z,42.80
2019-03-20T16:52:01.953Z,42.48
2019-03-20T16:54:30.523Z,43.98
2019-03-20T16:56:58.517Z,42.45
2019-03-20T16:59:26.523Z,42.53
2019-03-20T17:01:54.500Z,48.60
2019-03-20T17:04:22.505Z,44.73
2019-03-20T17:06:50.880Z,45.12
2019-03-20T17:09:19.258Z,45.73
2019-03-20T17:11:47.207Z,49.00
2019-03-20T17:14:16.049Z,43.05
2019-03-20T17:16:44.028Z,43.07
2019-03-20T17:19:12.033Z,42.85
2019-03-20T17:21:40.308Z,42.60
2019-03-20T17:24:08.945Z,43.10
2019-03-20T17:26:36.890Z,45.75
2019-03-20T17:29:08.988Z,43.42
2019-03-20T17:31:34.472Z,44.33
2019-03-20T17:34:03.058Z,50.20
2019-03-20T17:36:31.355Z,49.20
2019-03-20T17:38:59.631Z,46.77
2019-03-20T17:41:36.480Z,47.73
2019-03-20T17:43:57.685Z,49.18
2019-03-20T17:46:25.677Z,48.17
2019-03-20T17:48:53.620Z,54.33
2019-03-20T17:51:21.584Z,56.35
2019-03-20T17:53:49.547Z,48.40
2019-03-20T17:56:17.983Z,51.40
2019-03-20T17:58:46.854Z,55.45
2019-03-20T18:01:14.826Z,53.20
2019-03-20T18:03:42.764Z,56.23
2019-03-20T18:06:10.753Z,60.20
2019-03-20T18:08:39.524Z,54.57
2019-03-20T18:11:08.259Z,57.93
2019-03-20T18:13:36.842Z,57.27
2019-03-20T18:16:05.104Z,53.40
2019-03-20T18:18:33.110Z,56.30
2019-03-20T18:21:01.461Z,56.85
2019-03-20T18:23:29.745Z,63.87
2019-03-20T18:25:57.665Z,59.60
2019-03-20T18:28:25.961Z,59.30
2019-03-20T18:30:53.940Z,72.55
2019-03-20T18:33:22.751Z,61.65
2019-03-20T18:35:50.740Z,58.48
2019-03-20T18:38:19.099Z,60.67
2019-03-20T18:40:47.372Z,60.58
2019-03-20T18:43:15.468Z,62.33
2019-03-20T18:45:43.422Z,64.87
2019-03-20T18:48:11.405Z,64.15
2019-03-20T18:50:39.352Z,61.30
2019-03-20T18:53:07.645Z,64.35
2019-03-20T18:55:36.101Z,70.97
2019-03-20T18:58:04.493Z,67.75
2019-03-20T19:00:32.492Z,63.70
2019-03-20T19:03:00.701Z,66.93
2019-03-20T19:05:30.752Z,72.47
2019-03-20T19:07:58.742Z,74.32
2019-03-20T19:10:26.840Z,67.82
2019-03-20T19:12:54.752Z,73.07
2019-03-20T19:15:23.008Z,77.10
2019-03-20T19:17:50.928Z,71.42
2019-03-20T19:20:20.059Z,73.20
2019-03-20T19:22:48.085Z,76.10
2019-03-20T19:25:16.588Z,72.78
2019-03-20T19:27:44.825Z,74.03
2019-03-20T19:30:14.245Z,75.05
2019-03-20T19:32:42.241Z,74.43
2019-03-20T19:35:10.528Z,79.97
2019-03-20T19:37:38.759Z,80.35
2019-03-20T19:40:07.155Z,81.35
2019-03-20T19:42:35.418Z,79.12
2019-03-20T19:45:03.457Z,70.42
2019-03-20T19:47:31.772Z,80.17
2019-03-20T19:50:00.565Z,80.60
2019-03-20T19:52:28.887Z,86.75
2019-03-20T19:54:56.840Z,77.80
2019-03-20T19:57:25.901Z,83.85
2019-03-20T19:59:54.181Z,78.57
2019-03-20T20:02:22.420Z,79.43
2019-03-20T20:04:50.377Z,79.32
2019-03-20T20:07:18.337Z,77.47
2019-03-20T20:09:46.312Z,83.83
2019-03-20T20:12:14.306Z,79.77
2019-03-20T20:14:42.608Z,76.97
2019-03-20T20:17:10.577Z,78.00
2019-03-20T20:19:38.870Z,78.50
2019-03-20T20:22:07.080Z,81.02
2019-03-20T20:24:35.717Z,79.10
2019-03-20T20:27:03.668Z,79.82
2019-03-20T20:29:31.970Z,79.07
2019-03-20T20:32:00.247Z,78.97
2019-03-20T20:34:28.562Z,79.30
2019-03-20T20:36:56.617Z,79.12
2019-03-20T20:39:24.864Z,76.55
2019-03-20T20:41:53.149Z,72.95
2019-03-20T20:44:21.125Z,77.03
2019-03-20T20:46:49.357Z,77.47
2019-03-20T20:49:17.352Z,79.53
2019-03-20T20:51:47.626Z,80.05
2019-03-20T20:54:15.608Z,76.60
2019-03-20T20:56:43.626Z,73.97
2019-03-20T20:59:19.672Z,76.07
2019-03-20T21:01:47.657Z,76.65
2019-03-20T21:04:15.607Z,70.70
2019-03-20T21:06:43.583Z,79.80
2019-03-20T21:09:11.553Z,71.72
2019-03-20T21:11:39.512Z,75.85
2019-03-20T21:14:07.470Z,78.90
2019-03-20T21:16:35.682Z,74.50
2019-03-20T21:19:20.109Z,77.15
2019-03-20T21:22:22.299Z,76.80
2019-03-20T21:24:50.881Z,67.95
2019-03-20T21:27:41.077Z,76.27
2019-03-20T21:30:15.609Z,84.97
2019-03-20T21:32:44.500Z,70.62
2019-03-20T21:35:34.404Z,80.10
2019-03-20T21:38:09.208Z,75.92
2019-03-20T21:40:43.900Z,73.33
2019-03-20T21:43:30.872Z,72.05
2019-03-20T21:46:13.291Z,75.50
2019-03-20T21:48:44.121Z,76.20
2019-03-20T21:51:18.705Z,73.00
2019-03-20T21:54:11.965Z,71.80
2019-03-20T21:56:42.606Z,71.55
2019-03-20T21:59:17.994Z,80.27
2019-03-20T22:02:02.929Z,73.07
2019-03-20T22:04:31.726Z,77.62
2019-03-20T22:07:17.479Z,68.65
2019-03-20T22:10:19.957Z,73.85
2019-03-20T22:12:51.234Z,74.47
2019-03-20T22:15:41.425Z,77.60
2019-03-20T22:18:46.779Z,71.80
2019-03-20T22:21:41.640Z,75.22
2019-03-20T22:24:21.527Z,67.40
2019-03-20T22:27:17.815Z,68.75
2019-03-20T22:29:47.262Z,70.75
2019-03-20T22:32:34.725Z,67.85
2019-03-20T22:35:24.069Z,69.37
2019-03-20T22:37:52.945Z,67.72
2019-03-20T22:40:39.623Z,65.67
2019-03-20T22:43:13.252Z,66.57
2019-03-20T22:46:05.573Z,71.00
2019-03-20T22:48:47.727Z,70.67
2019-03-20T22:51:32.750Z,69.92
2019-03-20T22:54:21.590Z,72.67
2019-03-20T22:57:02.369Z,73.02
2019-03-20T22:59:30.558Z,70.27
2019-03-20T23:02:04.750Z,70.70
2019-03-20T23:04:34.408Z,71.30
2019-03-20T23:07:03.560Z,75.22
2019-03-20T23:09:31.767Z,73.57
2019-03-20T23:12:02.724Z,74.93
2019-03-20T23:14:30.939Z,71.75
2019-03-20T23:17:03.604Z,75.60
2019-03-20T23:19:32.327Z,76.60
2019-03-20T23:22:04.563Z,74.17
2019-03-20T23:24:48.582Z,71.62
2019-03-20T23:27:21.897Z,73.75
2019-03-20T23:29:52.778Z,78.17
2019-03-20T23:32:29.909Z,73.47
2019-03-20T23:34:59.583Z,74.97
2019-03-20T23:37:30.881Z,71.75
2019-03-20T23:39:59.795Z,79.67
2019-03-20T23:42:30.653Z,77.22
2019-03-20T23:45:00.435Z,76.30
2019-03-20T23:47:33.800Z,75.65
2019-03-20T23:50:03.943Z,75.33
2019-03-20T23:52:34.116Z,78.43
2019-03-20T23:55:03.616Z,79.80
2019-03-20T23:57:33.638Z,84.32
